Home   Weather   Russia   Syktyvkar   Past weeks
Flag for Russia

Past Weather in Syktyvkar, Russia — Yesterday and Last 2 Weeks

Currently: 63 °F. Clear. (Weather station: Syktyvkar Airport, Russia). See more current weather

Past Weather in Syktyvkar — Graph

°F

Syktyvkar Temperature Yesterday

Maximum temperature yesterday: 84 °F (at 12:30 pm)
Minimum temperature yesterday: 55 °F (at 2:00 am)
Average temperature yesterday: 72 °F

High & Low Weather Summary for the Past Weeks

 TemperatureHumidityPressure
High84 °F (Jul 6, 12:30 pm)100% (Jun 21, 11:00 pm)30.15 "Hg (Jun 21, 11:00 pm)
Low37 °F (Jul 1, 1:30 am)31% (Jul 1, 4:30 pm)29.45 "Hg (Jun 21, 11:00 pm)
Average59 °F68%29.93 "Hg
* Reported Jun 21 11:00 pm — Jul 6 11:30 pm, Syktyvkar. Weather by CustomWeather, © 2022

Note: Actual official high and low records may vary slightly from our data, if they occured in-between our weather recording intervals... More about our weather records

Syktyvkar Weather History for the Previous 24 Hours

Scroll right to see more
 ConditionsComfort  
Time TempWeatherWind HumidityBarometerVisibility
11:30 pm
Wed, Jul 6
63 °FClear.6 mph94%29.86 "Hg10 mi
11:00 pm66 °FClear.3 mph88%29.86 "Hg10 mi
10:30 pm66 °FClear.3 mph88%29.86 "Hg10 mi
8:30 pm68 °FPassing clouds.1 mph83%29.83 "Hg5 mi
7:00 pm73 °FPassing clouds.6 mph74%29.83 "HgN/A
6:30 pm73 °FPassing clouds.6 mph69%29.83 "HgN/A
5:00 pm77 °FScattered clouds.6 mph51%29.83 "HgN/A
4:30 pm81 °FScattered clouds.6 mph48%29.83 "HgN/A
4:00 pm79 °FPartly sunny.8 mph54%29.83 "HgN/A
3:30 pm79 °FPartly sunny.10 mph51%29.83 "Hg6 mi
3:00 pm84 °FPartly sunny.6 mph40%29.80 "HgN/A
2:00 pm84 °FPartly sunny.6 mph35%29.80 "HgN/A
1:30 pm84 °FPartly sunny.8 mph37%29.80 "HgN/A
1:00 pm84 °FPartly sunny.6 mph40%29.80 "HgN/A
12:30 pm84 °FPartly sunny.3 mph43%29.83 "HgN/A
12:00 pm82 °FPartly sunny.3 mph37%29.83 "HgN/A
11:30 am81 °FPartly sunny.6 mph45%29.83 "HgN/A
11:00 am82 °FScattered clouds.6 mph45%29.83 "HgN/A
10:30 am81 °FScattered clouds.8 mph45%29.83 "HgN/A
10:00 am81 °FScattered clouds.6 mph54%29.83 "HgN/A
9:30 am79 °FPassing clouds.3 mph58%29.83 "HgN/A
9:00 am75 °FSunny.6 mph61%29.83 "Hg10 mi
8:00 am72 °FSunny.6 mph69%29.86 "Hg10 mi
7:30 am70 °FSunny.6 mph69%29.86 "Hg10 mi
7:00 am68 °FSunny.6 mph73%29.86 "Hg10 mi
6:30 am66 °FSunny.6 mph73%29.86 "Hg10 mi
6:00 am64 °FSunny.3 mph78%29.86 "Hg10 mi
5:30 am63 °FSunny.3 mph77%29.86 "Hg10 mi
5:00 am61 °FSunny.3 mph77%29.86 "Hg10 mi
4:30 am61 °FSunny.6 mph77%29.86 "Hg10 mi
4:00 am59 °FSunny.6 mph82%29.86 "Hg10 mi
2:30 am57 °FSunny.6 mph88%29.86 "Hg10 mi
2:00 am55 °FClear.6 mph88%29.86 "Hg10 mi
1:30 am57 °FClear.3 mph82%29.86 "Hg10 mi
1:00 am57 °FClear.6 mph82%29.86 "Hg10 mi
Weather by CustomWeather, © 2022

See weather overview